Time;durP1;ratioP1;P1;durP2;ratioP2;P2;SDS_P1;SDS_P2;PMS_P1;PMS_P2;Temp;Humidity;BMP_temperature;BMP_pressure;BME280_temperature;BME280_humidity;BME280_pressure;Samples;Min_cycle;Max_cycle;Signal;HPM_P1;HPM_P2
2022/11/30 15:03:27;;;;;;;55.78;23.88;;;6.40;93.10;;;;;;5131428;27;20111;-49
2022/11/30 15:06:02;;;;;;;52.90;24.88;;;6.50;93.20;;;;;;5131040;28;20024;-48
2022/11/30 15:08:41;;;;;;;51.97;21.98;;;6.60;92.50;;;;;;5131365;28;20038;-49
2022/11/30 15:11:09;;;;;;;48.72;22.85;;;6.60;92.20;;;;;;5113928;28;20031;-48
2022/11/30 15:13:46;;;;;;;51.47;23.17;;;6.70;92.00;;;;;;5131003;28;20046;-48
2022/11/30 15:16:24;;;;;;;53.83;21.52;;;6.80;91.90;;;;;;5131124;28;20470;-47
2022/11/30 15:18:51;;;;;;;45.88;22.02;;;6.80;91.80;;;;;;5131193;28;20420;-50
2022/11/30 15:21:22;;;;;;;44.08;21.17;;;6.80;91.90;;;;;;5131237;28;20459;-48
2022/11/30 15:23:48;;;;;;;49.67;21.15;;;6.70;91.40;;;;;;5131217;28;20106;-49
2022/11/30 15:26:24;;;;;;;46.10;19.60;;;6.70;91.60;;;;;;5131495;28;20508;-49
2022/11/30 15:29:16;;;;;;;42.88;19.10;;;6.80;91.70;;;;;;5131195;28;20106;-47
2022/11/30 15:31:46;;;;;;;40.20;19.70;;;6.80;91.60;;;;;;5130374;27;20031;-49
2022/11/30 15:34:25;;;;;;;41.65;19.15;;;6.80;91.60;;;;;;5131166;28;20016;-48
2022/11/30 15:36:55;;;;;;;51.35;22.00;;;6.60;91.90;;;;;;5112838;28;20054;-49
2022/11/30 15:39:23;;;;;;;40.83;20.20;;;6.60;92.10;;;;;;5130823;28;20027;-47
2022/11/30 15:41:57;;;;;;;39.67;17.83;;;6.60;92.10;;;;;;5130831;27;20023;-47
2022/11/30 15:44:32;;;;;;;40.42;17.10;;;6.70;92.20;;;;;;5130323;27;20170;-49
2022/11/30 15:47:01;;;;;;;38.20;16.40;;;6.70;92.10;;;;;;5130637;27;20192;-49
2022/11/30 15:49:29;;;;;;;37.00;19.02;;;6.80;91.90;;;;;;5130751;27;20023;-50
2022/11/30 15:51:58;;;;;;;38.28;17.08;;;6.70;91.80;;;;;;5130423;27;20416;-50
2022/11/30 15:54:49;;;;;;;38.63;17.83;;;6.60;91.90;;;;;;5130619;27;20080;-50
2022/11/30 15:57:15;;;;;;;;;;;6.60;92.10;;;;;;5130534;27;20413;-49
2022/11/30 15:59:41;;;;;;;35.75;15.85;;;6.60;92.20;;;;;;5130158;28;19904;-49
2022/11/30 16:02:40;;;;;;;37.90;17.50;;;6.50;92.20;;;;;;5130077;27;20035;-48
2022/11/30 16:05:09;;;;;;;38.75;15.95;;;6.50;92.30;;;;;;5130354;27;20023;-52
2022/11/30 16:07:47;;;;;;;45.53;18.92;;;6.50;92.50;;;;;;5130152;27;20019;-48
2022/11/30 16:10:15;;;;;;;42.60;17.75;;;6.50;92.60;;;;;;5129956;27;20026;-48
2022/11/30 16:12:42;;;;;;;36.63;17.52;;;6.50;92.70;;;;;;5126299;27;20030;-50
2022/11/30 16:15:38;;;;;;;35.45;16.77;;;6.60;92.80;;;;;;5116014;28;20147;-48
2022/11/30 16:18:09;;;;;;;37.75;17.08;;;6.50;92.80;;;;;;5107049;28;20039;-48
2022/11/30 16:20:35;;;;;;;35.53;16.73;;;6.40;93.00;;;;;;5116488;28;20520;-48
2022/11/30 16:23:01;;;;;;;39.28;18.98;;;6.40;93.10;;;;;;5116366;28;20024;-52
2022/11/30 16:25:26;;;;;;;36.83;18.45;;;6.40;93.10;;;;;;5114958;28;20031;-49
2022/11/30 16:27:52;;;;;;;38.17;17.40;;;6.40;93.20;;;;;;5116043;28;20145;-48
2022/11/30 16:30:22;;;;;;;40.22;18.30;;;6.30;93.20;;;;;;5116547;28;20038;-47
2022/11/30 16:32:50;;;;;;;39.08;17.15;;;6.30;93.40;;;;;;5115206;28;20115;-47
2022/11/30 16:35:40;;;;;;;34.65;17.77;;;6.40;93.40;;;;;;5115067;28;20165;-49
2022/11/30 16:38:06;;;;;;;38.45;18.85;;;6.50;93.40;;;;;;5109398;28;20110;-47
2022/11/30 16:40:32;;;;;;;42.80;19.45;;;6.30;93.30;;;;;;5116798;28;20039;-51
2022/11/30 16:43:05;;;;;;;42.50;18.17;;;6.40;93.40;;;;;;5120386;28;20067;-47
2022/11/30 16:45:35;;;;;;;46.17;21.77;;;6.40;93.30;;;;;;5115823;28;20382;-47
2022/11/30 16:48:02;;;;;;;40.95;18.63;;;6.50;93.50;;;;;;5115604;27;20030;-47
2022/11/30 16:50:28;;;;;;;46.08;20.83;;;6.50;93.40;;;;;;5115749;28;20024;-47
2022/11/30 16:52:54;;;;;;;39.72;18.30;;;6.40;93.40;;;;;;5115838;27;20471;-48
2022/11/30 16:55:27;;;;;;;39.08;18.80;;;6.40;93.30;;;;;;5116135;28;20077;-47
2022/11/30 16:57:54;;;;;;;33.17;15.38;;;6.40;93.30;;;;;;5115917;28;20024;-50
2022/11/30 17:00:20;;;;;;;27.88;14.30;;;6.20;93.10;;;;;;5115929;28;20106;-50
2022/11/30 17:02:49;;;;;;;28.70;14.82;;;6.10;93.10;;;;;;5115563;28;20039;-52
2022/11/30 17:05:15;;;;;;;35.50;17.00;;;6.10;93.10;;;;;;5115991;28;20019;-47
2022/11/30 17:07:42;;;;;;;32.90;16.88;;;6.10;93.20;;;;;;5115311;28;20031;-47
2022/11/30 17:10:08;;;;;;;31.83;16.83;;;6.10;93.20;;;;;;5115631;28;20387;-50
2022/11/30 17:12:37;;;;;;;31.17;15.93;;;6.10;93.20;;;;;;5116058;28;20097;-47
2022/11/30 17:15:03;;;;;;;32.63;16.38;;;6.10;93.20;;;;;;5115469;28;20433;-48
2022/11/30 17:17:29;;;;;;;34.10;16.25;;;6.10;93.20;;;;;;5115028;28;20085;-49
2022/11/30 17:19:55;;;;;;;27.30;15.75;;;6.10;93.10;;;;;;5115573;28;20028;-50
2022/11/30 17:22:20;;;;;;;30.60;15.38;;;6.10;93.20;;;;;;5115255;28;20038;-46
2022/11/30 17:24:46;;;;;;;31.40;16.10;;;6.10;93.00;;;;;;5114203;28;20357;-47
2022/11/30 17:27:12;;;;;;;29.17;15.95;;;6.10;93.10;;;;;;5115117;28;20020;-49
2022/11/30 17:29:38;;;;;;;37.17;16.60;;;6.10;93.10;;;;;;5115132;28;20031;-49
2022/11/30 17:32:04;;;;;;;36.88;16.80;;;6.10;93.00;;;;;;5115150;28;20041;-49
2022/11/30 17:34:30;;;;;;;32.60;16.55;;;6.00;93.00;;;;;;5114709;28;20383;-50
2022/11/30 17:36:56;;;;;;;37.58;17.73;;;6.10;93.20;;;;;;5114863;27;20034;-50
2022/11/30 17:39:22;;;;;;;40.80;18.65;;;6.00;93.30;;;;;;5114640;28;20205;-48
2022/11/30 17:41:49;;;;;;;40.78;21.20;;;6.10;93.40;;;;;;5114718;28;20489;-49
2022/11/30 17:44:14;;;;;;;35.22;17.08;;;6.10;93.40;;;;;;5119692;28;20069;-49
2022/11/30 17:46:40;;;;;;;33.85;18.83;;;6.10;93.40;;;;;;5124638;28;20028;-49
2022/11/30 17:49:06;;;;;;;38.72;18.25;;;6.10;93.30;;;;;;5114560;28;20057;-50
2022/11/30 17:51:32;;;;;;;42.10;18.02;;;6.10;93.30;;;;;;5115296;28;20023;-50
2022/11/30 17:53:58;;;;;;;35.22;17.52;;;6.20;93.20;;;;;;5115237;28;20038;-50
2022/11/30 17:56:24;;;;;;;40.92;19.40;;;6.10;93.20;;;;;;5115291;27;20023;-48
2022/11/30 17:58:51;;;;;;;37.50;20.27;;;6.20;93.10;;;;;;5115044;28;20395;-48
2022/11/30 18:01:26;;;;;;;38.80;18.77;;;6.20;93.20;;;;;;5113154;28;20051;-48
2022/11/30 18:03:52;;;;;;;37.05;17.55;;;6.20;93.10;;;;;;5114747;28;20027;-50
2022/11/30 18:06:19;;;;;;;44.47;19.77;;;6.20;93.00;;;;;;5114751;28;20020;-49
2022/11/30 18:08:45;;;;;;;40.58;17.85;;;6.20;92.90;;;;;;5114206;28;20047;-51
2022/11/30 18:11:13;;;;;;;37.90;17.60;;;6.20;93.00;;;;;;5114618;28;20023;-48
2022/11/30 18:13:39;;;;;;;35.25;19.27;;;6.30;93.00;;;;;;5114410;28;20020;-49
2022/11/30 18:16:17;;;;;;;40.80;18.98;;;6.20;92.90;;;;;;5114878;28;20027;-49
2022/11/30 18:18:43;;;;;;;38.00;18.58;;;6.20;92.90;;;;;;5114708;28;20098;-49
2022/11/30 18:21:11;;;;;;;36.65;18.17;;;6.30;92.90;;;;;;5114432;28;20028;-48
2022/11/30 18:23:37;;;;;;;37.53;17.95;;;6.20;92.80;;;;;;5114549;28;20058;-49
2022/11/30 18:26:05;;;;;;;34.25;18.08;;;6.20;92.80;;;;;;5114063;28;20027;-50
2022/11/30 18:28:31;;;;;;;42.58;19.95;;;6.30;92.70;;;;;;5096075;28;20073;-50
2022/11/30 18:30:57;;;;;;;40.80;19.83;;;6.20;92.70;;;;;;5114156;28;20020;-49
2022/11/30 18:33:23;;;;;;;42.15;19.33;;;6.20;92.80;;;;;;5114579;28;20080;-48
2022/11/30 18:35:49;;;;;;;45.47;19.73;;;6.20;92.90;;;;;;5114258;28;20103;-48
2022/11/30 18:38:14;;;;;;;39.05;19.35;;;6.20;92.90;;;;;;5115539;28;20078;-51
2022/11/30 18:40:41;;;;;;;44.67;20.60;;;6.20;92.90;;;;;;5113936;28;20020;-50
2022/11/30 18:43:10;;;;;;;49.20;21.63;;;6.20;92.90;;;;;;5113936;28;20020;-61
2022/11/30 18:45:37;;;;;;;40.60;18.77;;;6.20;92.90;;;;;;5114192;28;20015;-59
2022/11/30 18:48:03;;;;;;;47.05;22.52;;;6.20;92.90;;;;;;5113960;28;20034;-62
2022/11/30 18:50:29;;;;;;;41.50;19.48;;;6.20;93.00;;;;;;5114257;28;20024;-61
2022/11/30 18:52:55;;;;;;;48.13;22.80;;;6.10;93.10;;;;;;5114250;28;20080;-59
2022/11/30 18:55:24;;;;;;;44.97;20.98;;;6.20;93.30;;;;;;5112467;28;20495;-61
2022/11/30 18:57:50;;;;;;;44.47;22.35;;;6.10;93.30;;;;;;5114482;28;20099;-61
2022/11/30 19:00:16;;;;;;;45.00;21.13;;;6.10;93.30;;;;;;5114004;28;20062;-61
2022/11/30 19:02:46;;;;;;;49.78;22.95;;;6.10;93.40;;;;;;5113543;28;20100;-60
2022/11/30 19:05:31;;;;;;;44.53;19.63;;;6.20;93.40;;;;;;5113785;28;20027;-61
2022/11/30 19:07:57;;;;;;;45.83;19.35;;;6.10;93.40;;;;;;5114416;28;20051;-61
2022/11/30 19:10:23;;;;;;;36.75;18.75;;;6.20;93.40;;;;;;5113890;28;20148;-60
2022/11/30 19:12:48;;;;;;;40.30;18.65;;;6.10;93.30;;;;;;5114312;28;20025;-60
2022/11/30 19:15:14;;;;;;;40.92;18.33;;;6.10;93.30;;;;;;5113560;28;20024;-61
2022/11/30 19:17:40;;;;;;;40.78;19.50;;;6.00;93.30;;;;;;5113471;28;20068;-60
2022/11/30 19:20:06;;;;;;;52.60;21.77;;;6.10;93.40;;;;;;5113519;28;20028;-62
2022/11/30 19:22:32;;;;;;;45.30;18.67;;;6.00;93.40;;;;;;5113597;28;20039;-61
2022/11/30 19:24:57;;;;;;;44.22;19.08;;;6.00;93.30;;;;;;5113941;28;20027;-61
2022/11/30 19:27:23;;;;;;;43.80;20.13;;;6.20;93.40;;;;;;5113719;28;20084;-63
2022/11/30 19:29:48;;;;;;;46.92;21.10;;;6.10;93.30;;;;;;5113613;28;20020;-63
2022/11/30 19:32:14;;;;;;;43.03;18.98;;;6.20;93.40;;;;;;5113579;28;20379;-60
2022/11/30 19:34:40;;;;;;;47.25;20.60;;;6.20;93.30;;;;;;5114122;28;20103;-61
2022/11/30 19:37:05;;;;;;;45.00;17.70;;;6.20;93.40;;;;;;5112287;28;20027;-61
2022/11/30 19:39:31;;;;;;;52.97;24.17;;;6.20;93.30;;;;;;5113219;28;20463;-62
2022/11/30 19:41:57;;;;;;;46.90;18.50;;;6.20;93.10;;;;;;5113323;28;20030;-62
2022/11/30 19:44:23;;;;;;;43.65;18.83;;;6.20;93.10;;;;;;5113480;28;20024;-61
2022/11/30 19:46:49;;;;;;;43.83;18.02;;;6.20;92.90;;;;;;5111997;28;20016;-61
2022/11/30 19:49:15;;;;;;;37.50;16.10;;;6.20;92.70;;;;;;5114838;28;20064;-60
2022/11/30 19:51:40;;;;;;;40.13;16.80;;;6.20;92.50;;;;;;5117484;28;20119;-60
2022/11/30 19:54:06;;;;;;;30.42;16.17;;;6.20;92.40;;;;;;5117454;28;20088;-61
2022/11/30 19:56:33;;;;;;;44.30;17.60;;;6.20;92.20;;;;;;5116004;28;20566;-61
2022/11/30 19:58:59;;;;;;;41.53;17.25;;;6.20;92.10;;;;;;5117018;28;20030;-62
2022/11/30 20:01:26;;;;;;;43.05;18.05;;;6.10;92.20;;;;;;5117314;28;20051;-63
2022/11/30 20:03:56;;;;;;;35.97;17.10;;;6.20;92.20;;;;;;5116698;28;20016;-61
2022/11/30 20:06:27;;;;;;;34.08;16.02;;;6.20;92.10;;;;;;5117069;28;20023;-61
2022/11/30 20:08:54;;;;;;;30.27;16.25;;;6.20;92.00;;;;;;5116784;28;20028;-61
2022/11/30 20:11:20;;;;;;;36.42;15.93;;;6.10;91.90;;;;;;5117190;28;20390;-60
2022/11/30 20:13:46;;;;;;;31.95;16.88;;;6.20;91.90;;;;;;5117225;28;20028;-61
2022/11/30 20:16:14;;;;;;;29.50;15.02;;;6.20;91.80;;;;;;5117323;28;20473;-62
2022/11/30 20:18:41;;;;;;;32.22;16.63;;;6.20;92.00;;;;;;5116568;28;20023;-63
2022/11/30 20:21:16;;;;;;;37.38;16.10;;;6.20;91.80;;;;;;5115384;28;20023;-61
2022/11/30 20:23:43;;;;;;;33.78;16.88;;;6.20;91.80;;;;;;5116516;28;20016;-61
2022/11/30 20:26:21;;;;;;;30.77;16.83;;;6.20;91.90;;;;;;5116434;28;20030;-60
2022/11/30 20:28:48;;;;;;;33.60;17.13;;;6.20;91.80;;;;;;5116643;28;20019;-61
2022/11/30 20:31:16;;;;;;;32.75;15.48;;;6.20;91.80;;;;;;5116810;28;20027;-60
2022/11/30 20:33:42;;;;;;;39.97;17.88;;;6.20;91.70;;;;;;5116487;28;20115;-61
2022/11/30 20:36:09;;;;;;;42.67;17.38;;;6.20;91.60;;;;;;5115387;28;20045;-60
2022/11/30 20:38:36;;;;;;;36.17;18.10;;;6.20;91.60;;;;;;5116064;28;20032;-61
2022/11/30 20:41:02;;;;;;;39.60;19.02;;;6.20;91.70;;;;;;5116297;28;20027;-60
2022/11/30 20:43:28;;;;;;;36.20;17.55;;;6.20;91.50;;;;;;5116367;28;20461;-62
2022/11/30 20:45:54;;;;;;;37.75;18.38;;;6.20;91.70;;;;;;5116226;28;20031;-60
2022/11/30 20:48:20;;;;;;;39.83;17.17;;;6.20;91.60;;;;;;5116094;28;20360;-60
2022/11/30 20:50:46;;;;;;;40.60;19.50;;;6.30;91.70;;;;;;5114733;28;20020;-60
2022/11/30 20:53:11;;;;;;;40.88;19.05;;;6.20;91.60;;;;;;5115808;28;20099;-62
2022/11/30 20:55:37;;;;;;;41.35;21.45;;;6.10;91.70;;;;;;5115967;28;20027;-60
2022/11/30 20:58:03;;;;;;;47.63;20.27;;;6.20;91.80;;;;;;5116290;28;20034;-62
2022/11/30 21:00:28;;;;;;;52.45;22.73;;;6.20;91.70;;;;;;5115607;28;20418;-61
